createdAt,value
2019-01-03T00:02:24.277Z,55.27
2019-01-03T00:05:16.312Z,55.27
2019-01-03T00:08:06.939Z,55.45
2019-01-03T00:11:06.576Z,55.63
2019-01-03T00:13:57.290Z,56.10
2019-01-03T00:16:54.606Z,56.31
2019-01-03T00:19:44.455Z,56.36
2019-01-03T00:22:34.307Z,56.87
2019-01-03T00:25:25.284Z,56.87
2019-01-03T00:28:16.323Z,57.00
2019-01-03T00:31:06.132Z,57.35
2019-01-03T00:34:03.316Z,57.65
2019-01-03T00:36:56.604Z,57.94
2019-01-03T00:39:59.777Z,57.94
2019-01-03T00:50:35.301Z,58.97
2019-01-03T00:53:18.105Z,59.10
2019-01-03T00:56:20.720Z,59.49
2019-01-03T00:59:04.618Z,60.22
2019-01-03T01:01:54.280Z,60.24
2019-01-03T01:04:43.637Z,60.24
2019-01-03T01:07:34.576Z,61.15
2019-01-03T01:10:34.952Z,61.15
2019-01-03T01:13:37.963Z,61.27
2019-01-03T01:16:28.693Z,61.51
2019-01-03T01:19:28.940Z,61.51
2019-01-03T01:22:32.402Z,61.60
2019-01-03T01:25:21.637Z,61.99
2019-01-03T01:28:10.634Z,62.28
2019-01-03T01:31:04.282Z,62.28
2019-01-03T01:33:54.559Z,62.36
2019-01-03T01:36:57.771Z,62.27
2019-01-03T01:39:39.589Z,62.41
2019-01-03T01:43:50.363Z,62.59
2019-01-03T01:46:55.283Z,62.38
2019-01-03T01:49:47.411Z,62.44
2019-01-03T01:52:56.765Z,62.42
2019-01-03T01:55:43.073Z,62.61
2019-01-03T01:58:32.277Z,62.65
2019-01-03T02:01:24.714Z,62.70
2019-01-03T02:04:20.444Z,63.03
2019-01-03T02:07:09.983Z,63.03
2019-01-03T02:10:16.288Z,62.86
2019-01-03T02:13:04.312Z,62.94
2019-01-03T02:15:48.256Z,63.09
2019-01-03T02:18:46.443Z,63.30
2019-01-03T02:21:37.130Z,63.30
2019-01-03T02:24:26.636Z,63.30
2019-01-03T02:27:16.323Z,63.17
2019-01-03T02:30:05.657Z,63.06
2019-01-03T02:33:02.392Z,63.12
2019-01-03T02:36:05.292Z,63.14
2019-01-03T02:39:03.579Z,63.14
2019-01-03T02:43:35.112Z,63.51
2019-01-03T02:46:32.303Z,63.48
2019-01-03T02:49:20.287Z,63.48
2019-01-03T02:52:03.341Z,63.63
2019-01-03T02:55:10.876Z,63.62
2019-01-03T02:58:02.461Z,63.79
2019-01-03T03:02:21.958Z,64.06
2019-01-03T03:05:31.139Z,64.32
2019-01-03T03:08:26.438Z,64.13
2019-01-03T03:11:15.812Z,64.56
2019-01-03T03:14:16.094Z,64.69
2019-01-03T03:17:08.197Z,64.53
2019-01-03T03:19:59.142Z,64.53
2019-01-03T03:22:54.708Z,64.44
2019-01-03T03:25:51.623Z,64.70
2019-01-03T03:28:51.349Z,64.64
2019-01-03T03:31:44.724Z,64.70
2019-01-03T03:34:41.336Z,64.70
2019-01-03T03:37:30.534Z,64.66
2019-01-03T03:40:19.794Z,64.92
2019-01-03T03:43:13.573Z,64.92
2019-01-03T03:46:06.576Z,65.07
2019-01-03T03:49:06.785Z,65.12
2019-01-03T03:51:56.455Z,65.12
2019-01-03T03:54:56.581Z,65.40
2019-01-03T03:58:02.396Z,65.54
2019-01-03T04:00:55.838Z,65.61
2019-01-03T04:06:36.711Z,65.61
2019-01-03T04:09:36.378Z,65.71
2019-01-03T04:12:34.615Z,65.71
2019-01-03T04:15:25.649Z,65.70
2019-01-03T04:18:25.973Z,65.71
2019-01-03T04:21:15.754Z,65.87
2019-01-03T04:24:12.654Z,65.99
2019-01-03T04:27:02.131Z,65.90
2019-01-03T04:30:08.424Z,66.28
2019-01-03T04:33:01.764Z,66.20
2019-01-03T04:35:45.585Z,66.20
2019-01-03T04:38:35.524Z,66.38
2019-01-03T04:41:21.679Z,66.27
2019-01-03T04:44:11.284Z,66.27
2019-01-03T04:46:55.122Z,66.43
2019-01-03T04:49:44.573Z,66.62
2019-01-03T04:52:47.352Z,66.63
2019-01-03T04:55:52.119Z,66.77
2019-01-03T04:58:36.289Z,66.77
2019-01-03T05:02:04.292Z,66.75
2019-01-03T05:04:49.297Z,66.87
2019-01-03T05:07:57.545Z,67.05
2019-01-03T05:10:48.396Z,67.23
2019-01-03T05:13:37.959Z,67.23
2019-01-03T05:16:28.611Z,67.04
2019-01-03T05:19:31.584Z,66.96
2019-01-03T05:22:28.285Z,66.95
2019-01-03T05:25:35.878Z,67.17
2019-01-03T05:28:38.319Z,66.79
2019-01-03T05:31:34.407Z,66.66
2019-01-03T05:34:25.656Z,66.46
2019-01-03T05:37:19.293Z,66.18
2019-01-03T05:40:08.483Z,66.23
2019-01-03T05:42:57.644Z,65.86
2019-01-03T05:45:58.646Z,65.86
2019-01-03T05:48:58.576Z,66.04
2019-01-03T05:51:57.449Z,65.94
2019-01-03T05:55:03.455Z,66.23
2019-01-03T05:57:56.585Z,66.14
2019-01-03T06:01:02.292Z,66.14
2019-01-03T06:04:10.309Z,66.25
2019-01-03T06:06:58.031Z,66.26
2019-01-03T06:09:49.254Z,66.26
2019-01-03T06:12:37.630Z,66.17
2019-01-03T06:15:28.373Z,66.19
2019-01-03T06:18:28.114Z,66.09
2019-01-03T06:21:31.277Z,66.09
2019-01-03T06:24:26.818Z,66.14
2019-01-03T06:27:16.399Z,66.19
2019-01-03T06:30:16.291Z,65.98
2019-01-03T06:33:21.108Z,66.00
2019-01-03T06:36:11.650Z,65.95
2019-01-03T06:39:14.950Z,65.71
2019-01-03T06:42:04.391Z,65.72
2019-01-03T06:44:53.944Z,65.48
2019-01-03T06:47:43.296Z,65.13
2019-01-03T06:50:33.568Z,65.27
2019-01-03T06:53:22.644Z,64.82
2019-01-03T06:56:25.400Z,64.82
2019-01-03T06:59:14.902Z,64.79
2019-01-03T07:02:20.957Z,64.86
2019-01-03T07:05:11.541Z,64.71
2019-01-03T07:08:01.461Z,64.62
2019-01-03T07:10:54.957Z,64.37
2019-01-03T07:13:51.786Z,64.37
2019-01-03T07:16:41.365Z,64.41
2019-01-03T07:19:30.655Z,64.38
2019-01-03T07:22:34.289Z,64.45
2019-01-03T07:25:29.586Z,64.45
2019-01-03T07:28:31.356Z,64.25
2019-01-03T07:31:20.449Z,64.07
2019-01-03T07:34:09.936Z,63.91
2019-01-03T07:37:05.656Z,63.61
2019-01-03T07:39:56.442Z,63.47
2019-01-03T07:42:50.291Z,63.18
2019-01-03T07:45:45.569Z,63.18
2019-01-03T07:48:39.317Z,63.00
2019-01-03T07:51:28.456Z,63.14
2019-01-03T07:54:31.326Z,63.07
2019-01-03T07:57:19.344Z,63.07
2019-01-03T08:00:08.645Z,62.98
2019-01-03T08:03:15.900Z,62.85
2019-01-03T08:06:02.708Z,62.57
2019-01-03T08:08:52.340Z,62.68
2019-01-03T08:11:41.639Z,62.38
2019-01-03T08:14:31.293Z,62.37
2019-01-03T08:17:20.489Z,62.35
2019-01-03T08:20:17.286Z,62.03
2019-01-03T08:23:06.408Z,62.03
2019-01-03T08:25:55.859Z,62.05
2019-01-03T08:28:45.402Z,61.98
2019-01-03T08:31:44.271Z,61.99
2019-01-03T08:34:32.279Z,61.99
2019-01-03T08:37:20.499Z,61.87
2019-01-03T08:40:13.913Z,61.50
2019-01-03T08:43:03.401Z,61.72
2019-01-03T08:46:01.879Z,61.72
2019-01-03T08:48:48.519Z,61.53
2019-01-03T08:51:38.284Z,61.35
2019-01-03T08:54:26.116Z,61.31
2019-01-03T08:57:19.870Z,61.18
2019-01-03T09:00:09.382Z,61.13
2019-01-03T09:02:58.661Z,60.91
2019-01-03T09:05:58.509Z,60.61
2019-01-03T09:08:55.324Z,60.73
2019-01-03T09:11:45.842Z,60.73
2019-01-03T09:14:51.665Z,60.61
2019-01-03T09:17:51.891Z,60.47
2019-01-03T09:20:41.284Z,60.47
2019-01-03T09:23:29.365Z,60.56
2019-01-03T09:26:34.944Z,60.30
2019-01-03T09:29:24.285Z,60.59
2019-01-03T09:32:31.839Z,61.01
2019-01-03T09:35:34.740Z,61.01
2019-01-03T09:38:24.593Z,61.01
2019-01-03T09:41:24.285Z,60.62
2019-01-03T09:44:20.943Z,60.26
2019-01-03T09:46:53.086Z,59.48
2019-01-03T09:49:25.100Z,59.78
2019-01-03T09:51:58.773Z,59.58
2019-01-03T09:54:30.856Z,59.16
2019-01-03T09:57:02.945Z,59.15
2019-01-03T09:59:34.950Z,58.73
2019-01-03T10:02:07.115Z,58.14
2019-01-03T10:04:39.252Z,58.65
2019-01-03T10:07:09.692Z,58.65
2019-01-03T10:09:41.885Z,57.92
2019-01-03T10:12:13.945Z,57.85
2019-01-03T10:14:45.937Z,57.51
2019-01-03T10:17:17.916Z,57.55
2019-01-03T10:19:49.947Z,57.59
2019-01-03T10:22:21.945Z,56.93
2019-01-03T10:24:53.942Z,57.27
2019-01-03T10:27:25.938Z,57.05
2019-01-03T10:29:57.934Z,56.82
2019-01-03T10:32:29.945Z,56.63
2019-01-03T10:35:02.283Z,56.49
2019-01-03T10:37:33.032Z,56.37
2019-01-03T10:40:05.267Z,56.03
2019-01-03T10:42:35.730Z,56.29
2019-01-03T10:45:09.685Z,56.14
2019-01-03T10:47:41.715Z,56.17
2019-01-03T10:50:13.720Z,56.04
2019-01-03T10:52:45.794Z,55.75
2019-01-03T10:55:17.953Z,55.10
2019-01-03T10:57:50.281Z,55.08
2019-01-03T11:00:20.866Z,54.98
2019-01-03T11:02:52.912Z,54.82
2019-01-03T11:05:24.946Z,54.96
2019-01-03T11:07:56.938Z,54.59
2019-01-03T11:10:30.938Z,54.22
2019-01-03T11:13:02.925Z,54.56
2019-01-03T11:15:34.952Z,54.32
2019-01-03T11:18:06.947Z,54.00
2019-01-03T11:20:38.938Z,53.81
2019-01-03T11:23:10.942Z,52.92
2019-01-03T11:25:42.934Z,52.86
2019-01-03T11:28:14.944Z,52.91
2019-01-03T11:30:46.896Z,53.17
2019-01-03T11:33:37.750Z,53.18
2019-01-03T11:36:11.658Z,53.37
2019-01-03T11:38:43.691Z,53.37
2019-01-03T11:41:15.707Z,53.42
2019-01-03T11:43:47.700Z,53.47
2019-01-03T11:46:19.745Z,53.68
2019-01-03T11:48:51.783Z,53.68
2019-01-03T11:51:23.885Z,53.55
2019-01-03T11:53:55.940Z,53.60
2019-01-03T11:56:27.959Z,53.71
2019-01-03T11:59:00.156Z,53.89
2019-01-03T12:01:30.691Z,54.05
2019-01-03T12:04:02.713Z,53.85
2019-01-03T12:06:34.781Z,54.06
2019-01-03T12:09:07.798Z,54.10
2019-01-03T12:11:39.938Z,54.47
2019-01-03T12:14:11.942Z,54.47
2019-01-03T12:16:44.088Z,54.55
2019-01-03T12:19:16.129Z,54.35
2019-01-03T12:21:48.137Z,54.23
2019-01-03T12:24:20.119Z,54.46
2019-01-03T12:26:52.272Z,54.50
2019-01-03T12:29:22.666Z,54.68
2019-01-03T12:31:54.675Z,55.01
2019-01-03T12:34:26.744Z,54.84
2019-01-03T12:36:58.780Z,54.52
2019-01-03T12:39:30.760Z,54.27
2019-01-03T12:42:02.941Z,54.93
2019-01-03T12:44:35.080Z,55.45
2019-01-03T12:47:07.271Z,55.94
2019-01-03T12:49:37.778Z,55.44
2019-01-03T12:53:03.878Z,56.68
2019-01-03T12:55:35.947Z,56.68
2019-01-03T12:58:07.911Z,57.13
2019-01-03T13:00:41.281Z,56.47
2019-01-03T13:03:11.864Z,55.83
2019-01-03T13:05:43.940Z,55.72
2019-01-03T13:08:15.943Z,55.56
2019-01-03T13:10:47.927Z,55.69
2019-01-03T13:13:19.945Z,55.75
2019-01-03T13:15:51.944Z,55.96
2019-01-03T13:19:28.775Z,55.94
2019-01-03T13:22:00.951Z,55.94
2019-01-03T13:24:32.915Z,55.90
2019-01-03T13:27:04.935Z,55.99
2019-01-03T13:29:39.596Z,56.86
2019-01-03T13:32:12.912Z,57.18
2019-01-03T13:34:44.916Z,57.46
2019-01-03T13:37:16.930Z,57.46
2019-01-03T13:39:48.932Z,58.03
2019-01-03T13:42:21.270Z,58.00
2019-01-03T13:44:51.843Z,58.80
2019-01-03T13:47:24.049Z,59.32
2019-01-03T13:49:56.124Z,60.53
2019-01-03T13:52:28.270Z,61.92
2019-01-03T13:54:58.853Z,63.72
2019-01-03T13:57:30.891Z,64.56
2019-01-03T14:00:02.942Z,64.53
2019-01-03T14:02:34.936Z,64.86
2019-01-03T14:05:07.275Z,65.28
2019-01-03T14:07:39.273Z,65.77
2019-01-03T14:10:10.046Z,65.92
2019-01-03T14:12:42.287Z,66.05
2019-01-03T14:15:14.707Z,66.85
2019-01-03T14:17:46.766Z,66.74
2019-01-03T14:20:18.879Z,66.95
2019-01-03T14:22:50.947Z,67.26
2019-01-03T14:25:23.300Z,67.76
2019-01-03T14:27:53.960Z,67.87
2019-01-03T14:30:26.107Z,68.29
2019-01-03T14:32:59.769Z,69.01
2019-01-03T14:35:32.339Z,68.92
2019-01-03T14:38:04.297Z,68.88
2019-01-03T14:40:34.861Z,68.88
2019-01-03T14:43:08.679Z,69.04
2019-01-03T14:45:40.762Z,69.08
2019-01-03T14:48:12.751Z,69.08
2019-01-03T14:50:44.878Z,69.08
2019-01-03T14:53:16.937Z,69.36
2019-01-03T14:55:49.116Z,69.22
2019-01-03T14:58:21.247Z,69.91
2019-01-03T15:00:52.004Z,70.04
2019-01-03T15:03:24.116Z,70.19
2019-01-03T15:05:54.796Z,70.43
2019-01-03T15:08:26.949Z,70.79
2019-01-03T15:10:58.937Z,70.84
2019-01-03T15:13:30.988Z,71.29
2019-01-03T15:16:03.126Z,71.52
2019-01-03T15:18:33.851Z,71.22
2019-01-03T15:21:05.948Z,71.15
2019-01-03T15:23:38.253Z,70.95
2019-01-03T15:26:09.092Z,70.70
2019-01-03T15:28:41.283Z,70.77
2019-01-03T15:31:11.868Z,71.19
2019-01-03T15:33:43.942Z,71.36
2019-01-03T15:36:15.950Z,71.68
2019-01-03T15:38:48.278Z,71.65
2019-01-03T15:41:20.286Z,71.75
2019-01-03T15:43:51.078Z,71.71
2019-01-03T15:46:23.122Z,71.71
2019-01-03T15:48:55.121Z,71.78
2019-01-03T15:51:27.130Z,71.89
2019-01-03T15:53:59.295Z,71.88
2019-01-03T15:56:31.282Z,71.84
2019-01-03T15:59:02.242Z,71.82
2019-01-03T16:01:32.717Z,72.00
2019-01-03T16:04:04.758Z,72.05
2019-01-03T16:06:36.881Z,72.03
2019-01-03T16:09:09.636Z,72.05
2019-01-03T16:11:41.954Z,72.19
2019-01-03T16:14:14.311Z,72.07
2019-01-03T16:16:46.285Z,71.77
2019-01-03T16:19:16.808Z,71.58
2019-01-03T16:21:48.973Z,71.29
2019-01-03T16:24:21.202Z,71.29
2019-01-03T16:26:53.344Z,71.07
2019-01-03T16:29:25.315Z,71.34
2019-01-03T16:31:55.986Z,71.34
2019-01-03T16:34:28.244Z,71.43
2019-01-03T16:36:58.985Z,71.64
2019-01-03T16:39:31.189Z,71.55
2019-01-03T16:42:03.254Z,71.70
2019-01-03T16:44:33.870Z,71.59
2019-01-03T16:47:05.942Z,71.60
2019-01-03T16:49:38.112Z,71.74
2019-01-03T16:52:10.285Z,71.78
2019-01-03T16:54:40.878Z,71.95
2019-01-03T16:57:12.925Z,72.13
2019-01-03T16:59:45.141Z,72.11
2019-01-03T17:04:25.733Z,72.13
2019-01-03T17:06:57.877Z,72.11
2019-01-03T17:09:30.090Z,72.02
2019-01-03T17:12:02.298Z,72.15
2019-01-03T17:14:32.714Z,72.27
2019-01-03T17:17:04.745Z,72.17
2019-01-03T17:19:36.866Z,72.17
2019-01-03T17:22:08.932Z,72.24
2019-01-03T17:24:40.954Z,72.26
2019-01-03T17:27:12.952Z,72.35
2019-01-03T17:29:44.955Z,72.10
2019-01-03T17:32:17.076Z,72.10
2019-01-03T17:34:49.197Z,72.11
2019-01-03T17:37:21.226Z,72.04
2019-01-03T17:39:53.282Z,72.19
2019-01-03T17:42:24.032Z,72.29
2019-01-03T17:44:56.257Z,72.27
2019-01-03T17:47:28.068Z,72.27
2019-01-03T17:50:00.285Z,72.46
2019-01-03T17:52:32.332Z,72.46
2019-01-03T17:55:04.277Z,72.53
2019-01-03T17:57:34.866Z,72.56
2019-01-03T18:00:10.320Z,72.74
2019-01-03T18:02:47.940Z,72.73
2019-01-03T18:05:20.250Z,72.65
2019-01-03T18:07:51.102Z,72.56
2019-01-03T18:10:23.335Z,72.49
2019-01-03T18:12:55.314Z,72.09
2019-01-03T18:15:26.283Z,72.09
2019-01-03T18:17:57.002Z,71.95
2019-01-03T18:22:54.991Z,72.01
2019-01-03T18:25:30.003Z,72.08
2019-01-03T18:28:02.277Z,72.19
2019-01-03T18:30:33.315Z,71.94
2019-01-03T18:33:04.282Z,71.76
2019-01-03T18:35:34.903Z,71.45
2019-01-03T18:38:09.475Z,71.54
2019-01-03T18:40:42.944Z,71.51
2019-01-03T18:43:14.951Z,71.51
2019-01-03T18:45:47.146Z,71.32
2019-01-03T18:48:19.277Z,71.47
2019-01-03T18:50:50.118Z,71.41
2019-01-03T18:53:22.285Z,71.59
2019-01-03T18:55:55.312Z,71.99
2019-01-03T18:58:28.272Z,71.86
2019-01-03T19:00:59.031Z,71.86
2019-01-03T19:03:31.257Z,71.16
2019-01-03T19:06:01.870Z,71.16
2019-01-03T19:08:34.286Z,71.01
2019-01-03T19:11:05.044Z,71.36
2019-01-03T19:13:37.265Z,71.46
2019-01-03T19:16:07.839Z,71.35
2019-01-03T19:18:41.360Z,71.16
2019-01-03T19:21:11.861Z,71.22
2019-01-03T19:23:44.121Z,71.30
2019-01-03T19:26:16.285Z,71.58
2019-01-03T19:28:47.071Z,71.58
2019-01-03T19:31:19.308Z,71.68
2019-01-03T19:33:51.271Z,71.84
2019-01-03T19:36:22.018Z,71.88
2019-01-03T19:38:54.276Z,72.11
2019-01-03T19:41:25.058Z,72.18
2019-01-03T19:43:57.105Z,72.56
2019-01-03T19:46:29.275Z,72.57
2019-01-03T19:49:00.077Z,72.53
2019-01-03T19:51:33.288Z,72.69
2019-01-03T19:54:03.869Z,72.90
2019-01-03T19:56:36.127Z,73.05
2019-01-03T19:59:08.285Z,72.99
2019-01-03T20:01:39.288Z,72.99
2019-01-03T20:04:11.283Z,72.93
2019-01-03T20:06:42.280Z,72.97
2019-01-03T20:09:13.129Z,72.75
2019-01-03T20:11:45.389Z,72.45
2019-01-03T20:14:17.942Z,72.25
2019-01-03T20:16:50.277Z,72.25
2019-01-03T20:19:21.091Z,72.22
2019-01-03T20:21:53.282Z,71.69
2019-01-03T20:24:24.005Z,71.60
2019-01-03T20:26:56.136Z,71.87
2019-01-03T20:29:26.995Z,71.99
2019-01-03T20:32:00.467Z,72.00
2019-01-03T20:34:32.713Z,71.78
2019-01-03T20:37:06.676Z,71.78
2019-01-03T20:39:38.876Z,71.85
2019-01-03T20:42:11.092Z,71.92
2019-01-03T20:44:43.644Z,71.92
2019-01-03T20:47:15.926Z,71.96
2019-01-03T20:49:48.256Z,71.97
2019-01-03T20:52:20.354Z,72.19
2019-01-03T20:54:50.785Z,72.25
2019-01-03T20:57:23.111Z,72.41
2019-01-03T20:59:55.278Z,72.64
2019-01-03T21:02:25.867Z,72.79
2019-01-03T21:04:58.082Z,72.86
2019-01-03T21:07:53.709Z,72.50
2019-01-03T21:10:25.897Z,72.50
2019-01-03T21:12:58.121Z,72.46
2019-01-03T21:15:30.290Z,72.52
2019-01-03T21:18:01.010Z,72.56
2019-01-03T21:20:33.277Z,72.50
2019-01-03T21:23:04.002Z,72.34
2019-01-03T21:25:36.271Z,72.17
2019-01-03T21:28:07.072Z,72.04
2019-01-03T21:30:39.273Z,72.13
2019-01-03T21:33:10.114Z,71.97
2019-01-03T21:35:42.344Z,71.68
2019-01-03T21:38:12.999Z,71.54
2019-01-03T21:40:45.084Z,71.74
2019-01-03T21:43:17.276Z,71.64
2019-01-03T21:45:49.109Z,71.44
2019-01-03T21:48:21.251Z,71.29
2019-01-03T21:50:51.853Z,71.07
2019-01-03T21:53:24.072Z,70.96
2019-01-03T21:55:56.282Z,70.83
2019-01-03T21:58:27.279Z,70.71
2019-01-03T22:00:58.214Z,70.39
2019-01-03T22:03:28.867Z,70.23
2019-01-03T22:06:01.130Z,70.09
2019-01-03T22:08:32.107Z,70.20
2019-01-03T22:11:04.285Z,70.20
2019-01-03T22:13:34.853Z,71.24
2019-01-03T22:16:07.049Z,71.24
2019-01-03T22:18:39.276Z,71.25
2019-01-03T22:21:10.102Z,71.21
2019-01-03T22:23:42.269Z,71.62
2019-01-03T22:26:13.062Z,71.62
2019-01-03T22:28:45.275Z,71.46
2019-01-03T22:32:43.285Z,71.00
2019-01-03T22:35:15.564Z,70.99
2019-01-03T22:37:47.776Z,70.99
2019-01-03T22:40:20.412Z,71.21
2019-01-03T22:42:52.741Z,71.22
2019-01-03T22:45:24.945Z,71.32
2019-01-03T22:47:57.264Z,71.46
2019-01-03T22:50:27.854Z,71.55
2019-01-03T22:53:00.137Z,71.60
2019-01-03T22:55:32.279Z,71.44
2019-01-03T22:58:03.028Z,71.46
2019-01-03T23:00:45.294Z,71.23
2019-01-03T23:03:16.060Z,71.22
2019-01-03T23:05:48.285Z,71.22
2019-01-03T23:08:20.285Z,71.44
2019-01-03T23:10:51.068Z,71.49
2019-01-03T23:13:23.276Z,71.36
2019-01-03T23:15:54.081Z,71.24
2019-01-03T23:18:31.401Z,71.24
2019-01-03T23:21:00.278Z,71.26
2019-01-03T23:23:31.065Z,71.04
2019-01-03T23:26:07.762Z,70.89
2019-01-03T23:28:40.088Z,70.76
2019-01-03T23:31:12.283Z,70.82
2019-01-03T23:33:44.276Z,71.07
2019-01-03T23:36:14.851Z,71.25
2019-01-03T23:38:46.931Z,71.11
2019-01-03T23:41:18.940Z,71.19
2019-01-03T23:43:51.114Z,71.29
2019-01-03T23:46:23.272Z,71.63
2019-01-03T23:48:55.814Z,71.78
2019-01-03T23:51:28.527Z,71.71
2019-01-03T23:54:00.741Z,71.71
2019-01-03T23:56:32.938Z,71.88
2019-01-03T23:59:04.947Z,72.17
